sensor_id;sensor_type;location;lat;lon;timestamp;pressure;altitude;pressure_sealevel;temperature;humidity
29359;BME280;16347;53.232;6.556;2023-01-08T00:01:21;100123.69;;;10.77;74.41
29359;BME280;16347;53.232;6.556;2023-01-08T00:03:49;100122.41;;;10.88;74.19
29359;BME280;16347;53.232;6.556;2023-01-08T00:06:18;100124.44;;;10.94;74.01
29359;BME280;16347;53.232;6.556;2023-01-08T00:08:47;100125.41;;;11.01;73.62
29359;BME280;16347;53.232;6.556;2023-01-08T00:11:15;100122.59;;;11.17;73.41
29359;BME280;16347;53.232;6.556;2023-01-08T00:13:43;100113.75;;;11.15;73.17
29359;BME280;16347;53.232;6.556;2023-01-08T00:16:13;100119.44;;;11.06;73.75
29359;BME280;16347;53.232;6.556;2023-01-08T00:18:44;100114.25;;;11.19;72.85
29359;BME280;16347;53.232;6.556;2023-01-08T00:21:13;100115.66;;;10.84;73.88
29359;BME280;16347;53.232;6.556;2023-01-08T00:23:41;100111.13;;;10.99;74.03
29359;BME280;16347;53.232;6.556;2023-01-08T00:26:10;100133.66;;;11.16;73.61
29359;BME280;16347;53.232;6.556;2023-01-08T00:28:38;100117.03;;;11.33;72.82
29359;BME280;16347;53.232;6.556;2023-01-08T00:31:08;100101.13;;;11.22;72.60
29359;BME280;16347;53.232;6.556;2023-01-08T00:33:37;100107.56;;;11.21;72.98
29359;BME280;16347;53.232;6.556;2023-01-08T00:36:08;100102.63;;;11.25;73.21
29359;BME280;16347;53.232;6.556;2023-01-08T00:38:37;100101.31;;;11.21;72.87
29359;BME280;16347;53.232;6.556;2023-01-08T00:41:05;100111.84;;;11.24;73.35
29359;BME280;16347;53.232;6.556;2023-01-08T00:43:32;100108.44;;;11.22;73.17
29359;BME280;16347;53.232;6.556;2023-01-08T00:46:00;100100.75;;;11.25;73.04
29359;BME280;16347;53.232;6.556;2023-01-08T00:48:29;100100.03;;;11.09;72.87
29359;BME280;16347;53.232;6.556;2023-01-08T00:51:00;100093.19;;;11.13;73.29
29359;BME280;16347;53.232;6.556;2023-01-08T00:53:30;100100.75;;;11.03;73.41
29359;BME280;16347;53.232;6.556;2023-01-08T00:55:59;100102.97;;;10.99;73.97
29359;BME280;16347;53.232;6.556;2023-01-08T00:58:28;100101.59;;;11.03;73.39
29359;BME280;16347;53.232;6.556;2023-01-08T01:00:56;100097.66;;;11.06;73.76
29359;BME280;16347;53.232;6.556;2023-01-08T01:03:24;100098.16;;;11.09;73.39
29359;BME280;16347;53.232;6.556;2023-01-08T01:05:59;100104.25;;;11.11;73.50
29359;BME280;16347;53.232;6.556;2023-01-08T01:08:27;100091.72;;;11.02;73.55
29359;BME280;16347;53.232;6.556;2023-01-08T01:10:56;100094.69;;;11.15;73.34
29359;BME280;16347;53.232;6.556;2023-01-08T01:13:24;100082.84;;;11.08;73.01
29359;BME280;16347;53.232;6.556;2023-01-08T01:15:56;100080.97;;;11.09;73.44
29359;BME280;16347;53.232;6.556;2023-01-08T01:18:25;100075.47;;;10.94;73.28
29359;BME280;16347;53.232;6.556;2023-01-08T01:20:53;100090.72;;;11.03;73.32
29359;BME280;16347;53.232;6.556;2023-01-08T01:23:21;100080.25;;;10.92;73.71
29359;BME280;16347;53.232;6.556;2023-01-08T01:25:49;100083.66;;;10.94;73.48
29359;BME280;16347;53.232;6.556;2023-01-08T01:28:19;100079.50;;;10.98;73.18
29359;BME280;16347;53.232;6.556;2023-01-08T01:30:52;100079.63;;;11.05;72.43
29359;BME280;16347;53.232;6.556;2023-01-08T01:33:21;100081.75;;;10.95;72.47
29359;BME280;16347;53.232;6.556;2023-01-08T01:35:58;100069.31;;;11.00;72.96
29359;BME280;16347;53.232;6.556;2023-01-08T01:38:26;100080.44;;;11.13;72.24
29359;BME280;16347;53.232;6.556;2023-01-08T01:40:54;100075.84;;;11.14;71.95
29359;BME280;16347;53.232;6.556;2023-01-08T01:43:40;100069.06;;;11.10;72.54
29359;BME280;16347;53.232;6.556;2023-01-08T01:46:17;100083.28;;;11.20;72.61
29359;BME280;16347;53.232;6.556;2023-01-08T01:48:48;100083.16;;;11.13;72.54
29359;BME280;16347;53.232;6.556;2023-01-08T01:51:18;100079.31;;;11.08;72.87
29359;BME280;16347;53.232;6.556;2023-01-08T01:53:47;100089.63;;;11.12;72.40
29359;BME280;16347;53.232;6.556;2023-01-08T01:56:16;100095.91;;;11.13;72.34
29359;BME280;16347;53.232;6.556;2023-01-08T01:58:45;100078.50;;;11.22;72.56
29359;BME280;16347;53.232;6.556;2023-01-08T02:01:13;100074.94;;;11.21;72.46
29359;BME280;16347;53.232;6.556;2023-01-08T02:03:41;100084.38;;;11.11;72.83
29359;BME280;16347;53.232;6.556;2023-01-08T02:06:16;100091.09;;;11.23;72.54
29359;BME280;16347;53.232;6.556;2023-01-08T02:08:54;100101.88;;;11.08;72.42
29359;BME280;16347;53.232;6.556;2023-01-08T02:11:30;100110.13;;;11.00;72.53
29359;BME280;16347;53.232;6.556;2023-01-08T02:14:06;100106.69;;;11.06;71.86
29359;BME280;16347;53.232;6.556;2023-01-08T02:16:40;100094.44;;;11.02;71.40
29359;BME280;16347;53.232;6.556;2023-01-08T02:19:18;100083.94;;;11.22;70.57
29359;BME280;16347;53.232;6.556;2023-01-08T02:21:57;100084.78;;;11.22;70.24
29359;BME280;16347;53.232;6.556;2023-01-08T02:24:41;100090.00;;;11.09;70.58
29359;BME280;16347;53.232;6.556;2023-01-08T02:27:16;100092.22;;;11.06;70.34
29359;BME280;16347;53.232;6.556;2023-01-08T02:29:45;100091.22;;;11.07;69.86
29359;BME280;16347;53.232;6.556;2023-01-08T02:32:13;100098.84;;;10.80;70.48
29359;BME280;16347;53.232;6.556;2023-01-08T02:34:41;100082.97;;;10.92;70.16
29359;BME280;16347;53.232;6.556;2023-01-08T02:37:09;100084.66;;;10.93;70.04
29359;BME280;16347;53.232;6.556;2023-01-08T02:39:51;100068.16;;;10.95;69.94
29359;BME280;16347;53.232;6.556;2023-01-08T02:42:32;100087.19;;;10.95;69.54
29359;BME280;16347;53.232;6.556;2023-01-08T02:45:07;100099.53;;;10.74;69.27
29359;BME280;16347;53.232;6.556;2023-01-08T02:47:41;100095.38;;;10.64;69.34
29359;BME280;16347;53.232;6.556;2023-01-08T02:50:16;100096.69;;;10.68;69.13
29359;BME280;16347;53.232;6.556;2023-01-08T02:52:51;100081.69;;;10.80;68.62
29359;BME280;16347;53.232;6.556;2023-01-08T02:55:23;100099.88;;;10.79;68.50
29359;BME280;16347;53.232;6.556;2023-01-08T02:57:54;100104.97;;;10.74;68.51
29359;BME280;16347;53.232;6.556;2023-01-08T03:00:23;100109.59;;;10.74;68.58
29359;BME280;16347;53.232;6.556;2023-01-08T03:02:57;100101.09;;;10.69;68.23
29359;BME280;16347;53.232;6.556;2023-01-08T03:05:28;100102.47;;;10.65;68.36
29359;BME280;16347;53.232;6.556;2023-01-08T03:07:57;100108.97;;;10.64;67.91
29359;BME280;16347;53.232;6.556;2023-01-08T03:10:27;100103.16;;;10.67;67.39
29359;BME280;16347;53.232;6.556;2023-01-08T03:13:01;100095.53;;;10.62;67.92
29359;BME280;16347;53.232;6.556;2023-01-08T03:15:36;100089.31;;;10.54;67.77
29359;BME280;16347;53.232;6.556;2023-01-08T03:18:11;100087.22;;;10.64;67.23
29359;BME280;16347;53.232;6.556;2023-01-08T03:20:42;100090.22;;;10.69;67.00
29359;BME280;16347;53.232;6.556;2023-01-08T03:23:12;100100.09;;;10.70;66.60
29359;BME280;16347;53.232;6.556;2023-01-08T03:25:45;100095.56;;;10.54;67.32
29359;BME280;16347;53.232;6.556;2023-01-08T03:28:19;100083.38;;;10.50;67.67
29359;BME280;16347;53.232;6.556;2023-01-08T03:30:49;100090.81;;;10.56;67.47
29359;BME280;16347;53.232;6.556;2023-01-08T03:33:20;100092.03;;;10.54;67.72
29359;BME280;16347;53.232;6.556;2023-01-08T03:35:51;100092.19;;;10.52;68.15
29359;BME280;16347;53.232;6.556;2023-01-08T03:38:22;100100.13;;;10.62;67.76
29359;BME280;16347;53.232;6.556;2023-01-08T03:40:54;100100.81;;;10.64;68.06
29359;BME280;16347;53.232;6.556;2023-01-08T03:43:25;100098.97;;;10.56;68.97
29359;BME280;16347;53.232;6.556;2023-01-08T03:45:56;100097.09;;;10.57;68.51
29359;BME280;16347;53.232;6.556;2023-01-08T03:48:29;100082.81;;;10.55;68.63
29359;BME280;16347;53.232;6.556;2023-01-08T03:50:58;100088.84;;;10.73;68.48
29359;BME280;16347;53.232;6.556;2023-01-08T03:53:26;100096.03;;;10.66;68.92
29359;BME280;16347;53.232;6.556;2023-01-08T03:55:55;100077.13;;;10.72;68.78
29359;BME280;16347;53.232;6.556;2023-01-08T03:58:25;100086.03;;;10.58;69.47
29359;BME280;16347;53.232;6.556;2023-01-08T04:00:53;100073.91;;;10.69;69.53
29359;BME280;16347;53.232;6.556;2023-01-08T04:03:21;100072.63;;;10.88;68.83
29359;BME280;16347;53.232;6.556;2023-01-08T04:05:50;100074.75;;;10.77;68.89
29359;BME280;16347;53.232;6.556;2023-01-08T04:08:18;100068.38;;;10.85;69.04
29359;BME280;16347;53.232;6.556;2023-01-08T04:10:46;100055.56;;;10.71;69.29
29359;BME280;16347;53.232;6.556;2023-01-08T04:13:14;100051.66;;;10.73;69.63
29359;BME280;16347;53.232;6.556;2023-01-08T04:15:47;100043.63;;;10.80;69.44
29359;BME280;16347;53.232;6.556;2023-01-08T04:18:15;100041.16;;;10.93;69.48
29359;BME280;16347;53.232;6.556;2023-01-08T04:20:44;100055.59;;;10.63;69.30
29359;BME280;16347;53.232;6.556;2023-01-08T04:23:13;100044.75;;;10.55;70.61
29359;BME280;16347;53.232;6.556;2023-01-08T04:25:42;100045.94;;;10.60;70.34
29359;BME280;16347;53.232;6.556;2023-01-08T04:28:10;100054.50;;;10.49;70.50
29359;BME280;16347;53.232;6.556;2023-01-08T04:30:38;100042.00;;;10.63;70.64
29359;BME280;16347;53.232;6.556;2023-01-08T04:33:08;100049.44;;;10.69;70.57
29359;BME280;16347;53.232;6.556;2023-01-08T04:35:36;100049.41;;;10.77;70.37
29359;BME280;16347;53.232;6.556;2023-01-08T04:38:04;100051.66;;;10.73;70.66
29359;BME280;16347;53.232;6.556;2023-01-08T04:40:32;100053.50;;;10.73;71.07
29359;BME280;16347;53.232;6.556;2023-01-08T04:43:01;100055.88;;;10.76;70.85
29359;BME280;16347;53.232;6.556;2023-01-08T04:45:29;100039.56;;;10.76;71.04
29359;BME280;16347;53.232;6.556;2023-01-08T04:47:58;100043.06;;;10.85;71.04
29359;BME280;16347;53.232;6.556;2023-01-08T04:50:27;100036.72;;;10.92;70.72
29359;BME280;16347;53.232;6.556;2023-01-08T04:52:57;100035.06;;;10.60;71.60
29359;BME280;16347;53.232;6.556;2023-01-08T04:55:25;100035.47;;;10.49;72.25
29359;BME280;16347;53.232;6.556;2023-01-08T04:57:54;100035.75;;;10.54;72.80
29359;BME280;16347;53.232;6.556;2023-01-08T05:00:22;100031.75;;;10.73;72.31
29359;BME280;16347;53.232;6.556;2023-01-08T05:02:50;100024.38;;;10.81;72.52
29359;BME280;16347;53.232;6.556;2023-01-08T05:05:18;100023.72;;;10.79;72.30
29359;BME280;16347;53.232;6.556;2023-01-08T05:07:47;100018.16;;;10.73;72.18
29359;BME280;16347;53.232;6.556;2023-01-08T05:10:15;100011.09;;;10.87;72.36
29359;BME280;16347;53.232;6.556;2023-01-08T05:12:43;100014.31;;;10.90;72.08
29359;BME280;16347;53.232;6.556;2023-01-08T05:15:11;100030.16;;;10.87;71.81
29359;BME280;16347;53.232;6.556;2023-01-08T05:17:39;100014.00;;;10.85;71.85
29359;BME280;16347;53.232;6.556;2023-01-08T05:20:08;100023.06;;;10.77;72.48
29359;BME280;16347;53.232;6.556;2023-01-08T05:22:36;100022.03;;;10.78;72.53
29359;BME280;16347;53.232;6.556;2023-01-08T05:25:06;100004.81;;;10.63;72.67
29359;BME280;16347;53.232;6.556;2023-01-08T05:27:35;100013.56;;;10.73;72.31
29359;BME280;16347;53.232;6.556;2023-01-08T05:30:03;100006.19;;;10.59;73.29
29359;BME280;16347;53.232;6.556;2023-01-08T05:32:32;99991.09;;;10.57;73.26
29359;BME280;16347;53.232;6.556;2023-01-08T05:35:00;99987.72;;;10.77;72.83
29359;BME280;16347;53.232;6.556;2023-01-08T05:37:28;99966.03;;;10.69;72.83
29359;BME280;16347;53.232;6.556;2023-01-08T05:39:56;99988.34;;;10.88;71.91
29359;BME280;16347;53.232;6.556;2023-01-08T05:42:25;100002.47;;;10.83;72.18
29359;BME280;16347;53.232;6.556;2023-01-08T05:44:53;100000.47;;;10.77;71.98
29359;BME280;16347;53.232;6.556;2023-01-08T05:47:21;100000.72;;;10.67;72.53
29359;BME280;16347;53.232;6.556;2023-01-08T05:49:49;99998.94;;;10.74;72.49
29359;BME280;16347;53.232;6.556;2023-01-08T05:52:17;100008.38;;;10.87;72.15
29359;BME280;16347;53.232;6.556;2023-01-08T05:54:45;100007.41;;;10.79;71.72
29359;BME280;16347;53.232;6.556;2023-01-08T05:57:13;100014.91;;;10.77;72.14
29359;BME280;16347;53.232;6.556;2023-01-08T05:59:43;100010.13;;;10.79;72.08
29359;BME280;16347;53.232;6.556;2023-01-08T06:02:11;100008.66;;;10.69;72.27
29359;BME280;16347;53.232;6.556;2023-01-08T06:04:39;100003.75;;;10.64;72.64
29359;BME280;16347;53.232;6.556;2023-01-08T06:07:07;100005.28;;;10.67;72.56
29359;BME280;16347;53.232;6.556;2023-01-08T06:09:35;100003.72;;;10.72;72.46
29359;BME280;16347;53.232;6.556;2023-01-08T06:12:03;100003.44;;;10.67;72.21
29359;BME280;16347;53.232;6.556;2023-01-08T06:14:31;100001.00;;;10.72;72.11
29359;BME280;16347;53.232;6.556;2023-01-08T06:17:00;100009.34;;;10.71;71.82
29359;BME280;16347;53.232;6.556;2023-01-08T06:19:28;100010.13;;;10.57;71.66
29359;BME280;16347;53.232;6.556;2023-01-08T06:21:56;100014.34;;;10.59;71.28
29359;BME280;16347;53.232;6.556;2023-01-08T06:24:27;100016.41;;;10.57;71.69
29359;BME280;16347;53.232;6.556;2023-01-08T06:26:55;100011.97;;;10.56;71.20
29359;BME280;16347;53.232;6.556;2023-01-08T06:29:23;100014.47;;;10.66;70.76
29359;BME280;16347;53.232;6.556;2023-01-08T06:31:51;100010.41;;;10.62;70.47
29359;BME280;16347;53.232;6.556;2023-01-08T06:34:21;100015.47;;;10.65;70.41
29359;BME280;16347;53.232;6.556;2023-01-08T06:36:49;100014.78;;;10.71;70.17
29359;BME280;16347;53.232;6.556;2023-01-08T06:39:17;100012.06;;;10.71;70.30
29359;BME280;16347;53.232;6.556;2023-01-08T06:41:46;100010.97;;;10.80;69.93
29359;BME280;16347;53.232;6.556;2023-01-08T06:44:14;100004.56;;;10.73;69.79
29359;BME280;16347;53.232;6.556;2023-01-08T06:46:42;100005.94;;;10.69;70.03
29359;BME280;16347;53.232;6.556;2023-01-08T06:49:11;100003.31;;;10.61;70.22
29359;BME280;16347;53.232;6.556;2023-01-08T06:51:41;100001.97;;;10.57;71.32
29359;BME280;16347;53.232;6.556;2023-01-08T06:54:10;100010.03;;;10.65;70.90
29359;BME280;16347;53.232;6.556;2023-01-08T06:56:39;100008.25;;;10.57;71.56
29359;BME280;16347;53.232;6.556;2023-01-08T06:59:19;100013.56;;;10.51;72.31
29359;BME280;16347;53.232;6.556;2023-01-08T07:01:47;100010.50;;;10.46;72.29
29359;BME280;16347;53.232;6.556;2023-01-08T07:04:15;100015.22;;;10.52;72.70
29359;BME280;16347;53.232;6.556;2023-01-08T07:06:45;100010.16;;;10.49;72.70
29359;BME280;16347;53.232;6.556;2023-01-08T07:09:14;100004.34;;;10.52;72.31
29359;BME280;16347;53.232;6.556;2023-01-08T07:11:42;100004.81;;;10.33;72.90
29359;BME280;16347;53.232;6.556;2023-01-08T07:14:10;99999.16;;;10.42;73.19
29359;BME280;16347;53.232;6.556;2023-01-08T07:16:38;100006.09;;;10.45;73.31
29359;BME280;16347;53.232;6.556;2023-01-08T07:19:06;100000.75;;;10.28;73.60
29359;BME280;16347;53.232;6.556;2023-01-08T07:21:35;100002.00;;;10.49;73.17
29359;BME280;16347;53.232;6.556;2023-01-08T07:24:05;99999.22;;;10.34;73.14
29359;BME280;16347;53.232;6.556;2023-01-08T07:26:33;100004.00;;;10.24;73.68
29359;BME280;16347;53.232;6.556;2023-01-08T07:29:01;99999.75;;;10.21;73.96
29359;BME280;16347;53.232;6.556;2023-01-08T07:31:29;99997.53;;;10.25;73.42
29359;BME280;16347;53.232;6.556;2023-01-08T07:33:57;100000.31;;;10.17;73.50
29359;BME280;16347;53.232;6.556;2023-01-08T07:36:26;99994.88;;;10.17;73.24
29359;BME280;16347;53.232;6.556;2023-01-08T07:38:54;99999.75;;;10.21;73.03
29359;BME280;16347;53.232;6.556;2023-01-08T07:41:23;100003.16;;;10.23;72.54
29359;BME280;16347;53.232;6.556;2023-01-08T07:43:51;100001.25;;;10.32;72.27
29359;BME280;16347;53.232;6.556;2023-01-08T07:46:19;100004.34;;;10.21;72.20
29359;BME280;16347;53.232;6.556;2023-01-08T07:48:48;100006.16;;;10.37;72.41
29359;BME280;16347;53.232;6.556;2023-01-08T07:51:16;100019.47;;;10.23;71.89
29359;BME280;16347;53.232;6.556;2023-01-08T07:53:44;100021.84;;;10.18;72.17
29359;BME280;16347;53.232;6.556;2023-01-08T07:56:13;100011.81;;;10.11;72.86
29359;BME280;16347;53.232;6.556;2023-01-08T07:58:42;100020.81;;;10.11;72.86
29359;BME280;16347;53.232;6.556;2023-01-08T08:01:10;100016.63;;;10.01;72.77
29359;BME280;16347;53.232;6.556;2023-01-08T08:03:39;100013.03;;;10.08;72.41
29359;BME280;16347;53.232;6.556;2023-01-08T08:06:09;100010.00;;;10.03;72.73
29359;BME280;16347;53.232;6.556;2023-01-08T08:08:37;100012.09;;;9.93;73.36
29359;BME280;16347;53.232;6.556;2023-01-08T08:11:07;100005.66;;;9.86;73.71
29359;BME280;16347;53.232;6.556;2023-01-08T08:13:36;100012.28;;;9.84;73.80
29359;BME280;16347;53.232;6.556;2023-01-08T08:16:10;100010.38;;;9.84;73.86
29359;BME280;16347;53.232;6.556;2023-01-08T08:18:39;100011.38;;;9.91;73.27
29359;BME280;16347;53.232;6.556;2023-01-08T08:21:07;99999.16;;;9.95;72.68
29359;BME280;16347;53.232;6.556;2023-01-08T08:23:35;99999.66;;;9.99;72.77
29359;BME280;16347;53.232;6.556;2023-01-08T08:26:03;99998.66;;;10.00;72.89
29359;BME280;16347;53.232;6.556;2023-01-08T08:28:33;99990.88;;;9.80;73.11
29359;BME280;16347;53.232;6.556;2023-01-08T08:31:01;99991.03;;;9.87;73.22
29359;BME280;16347;53.232;6.556;2023-01-08T08:33:31;99990.16;;;10.03;72.48
29359;BME280;16347;53.232;6.556;2023-01-08T08:35:59;99985.78;;;9.86;72.79
29359;BME280;16347;53.232;6.556;2023-01-08T08:38:27;99983.94;;;9.86;72.66
29359;BME280;16347;53.232;6.556;2023-01-08T08:40:55;99989.16;;;9.88;73.34
29359;BME280;16347;53.232;6.556;2023-01-08T08:43:24;99983.78;;;9.79;73.27
29359;BME280;16347;53.232;6.556;2023-01-08T08:45:54;99984.13;;;9.76;73.08
29359;BME280;16347;53.232;6.556;2023-01-08T08:48:22;99987.72;;;9.69;73.20
29359;BME280;16347;53.232;6.556;2023-01-08T08:50:52;99972.94;;;9.71;73.82
29359;BME280;16347;53.232;6.556;2023-01-08T08:53:20;99976.50;;;9.72;73.59
29359;BME280;16347;53.232;6.556;2023-01-08T08:55:48;99979.22;;;9.72;73.34
29359;BME280;16347;53.232;6.556;2023-01-08T08:58:16;99972.94;;;9.79;73.21
29359;BME280;16347;53.232;6.556;2023-01-08T09:00:45;99981.06;;;9.79;72.48
29359;BME280;16347;53.232;6.556;2023-01-08T09:03:13;99974.59;;;9.80;72.76
29359;BME280;16347;53.232;6.556;2023-01-08T09:05:42;99979.72;;;9.75;73.09
29359;BME280;16347;53.232;6.556;2023-01-08T09:08:12;99975.66;;;9.71;73.29
29359;BME280;16347;53.232;6.556;2023-01-08T09:10:40;99975.94;;;9.93;72.78
29359;BME280;16347;53.232;6.556;2023-01-08T09:13:10;99974.75;;;9.87;72.63
29359;BME280;16347;53.232;6.556;2023-01-08T09:15:38;99977.44;;;9.95;72.06
29359;BME280;16347;53.232;6.556;2023-01-08T09:18:06;99985.28;;;9.90;72.60
29359;BME280;16347;53.232;6.556;2023-01-08T09:20:34;99987.94;;;10.06;72.08
29359;BME280;16347;53.232;6.556;2023-01-08T09:23:03;99991.66;;;10.05;71.61
29359;BME280;16347;53.232;6.556;2023-01-08T09:25:34;99989.72;;;9.83;72.49
29359;BME280;16347;53.232;6.556;2023-01-08T09:28:04;99995.09;;;9.99;72.22
29359;BME280;16347;53.232;6.556;2023-01-08T09:30:33;99988.09;;;10.05;72.18
29359;BME280;16347;53.232;6.556;2023-01-08T09:33:03;99979.56;;;10.24;71.37
29359;BME280;16347;53.232;6.556;2023-01-08T09:35:32;99986.72;;;10.17;71.41
29359;BME280;16347;53.232;6.556;2023-01-08T09:38:00;99989.72;;;9.83;72.33
29359;BME280;16347;53.232;6.556;2023-01-08T09:40:32;99990.84;;;9.97;71.93
29359;BME280;16347;53.232;6.556;2023-01-08T09:43:04;99995.16;;;9.83;71.86
29359;BME280;16347;53.232;6.556;2023-01-08T09:45:35;99992.38;;;9.99;71.71
29359;BME280;16347;53.232;6.556;2023-01-08T09:48:09;99982.06;;;9.87;71.50
29359;BME280;16347;53.232;6.556;2023-01-08T09:50:39;99988.88;;;9.83;71.73
29359;BME280;16347;53.232;6.556;2023-01-08T09:53:11;99991.06;;;9.79;71.80
29359;BME280;16347;53.232;6.556;2023-01-08T09:55:40;99984.78;;;9.87;71.25
29359;BME280;16347;53.232;6.556;2023-01-08T09:58:20;99992.22;;;9.93;70.90
29359;BME280;16347;53.232;6.556;2023-01-08T10:00:50;99983.19;;;10.00;70.55
29359;BME280;16347;53.232;6.556;2023-01-08T10:03:20;99992.56;;;9.90;70.72
29359;BME280;16347;53.232;6.556;2023-01-08T10:05:50;99979.09;;;10.04;70.22
29359;BME280;16347;53.232;6.556;2023-01-08T10:08:19;99990.09;;;10.11;69.71
29359;BME280;16347;53.232;6.556;2023-01-08T10:10:47;99992.38;;;9.99;69.84
29359;BME280;16347;53.232;6.556;2023-01-08T10:13:17;99981.38;;;9.85;70.36
29359;BME280;16347;53.232;6.556;2023-01-08T10:15:45;99983.94;;;9.86;69.90
29359;BME280;16347;53.232;6.556;2023-01-08T10:18:25;99980.50;;;9.92;70.00
29359;BME280;16347;53.232;6.556;2023-01-08T10:20:54;99973.63;;;10.12;69.29
29359;BME280;16347;53.232;6.556;2023-01-08T10:23:24;99959.72;;;10.15;69.05
29359;BME280;16347;53.232;6.556;2023-01-08T10:25:54;99974.06;;;9.93;68.75
29359;BME280;16347;53.232;6.556;2023-01-08T10:28:25;99960.94;;;10.05;68.39
29359;BME280;16347;53.232;6.556;2023-01-08T10:30:58;99961.50;;;9.92;68.22
29359;BME280;16347;53.232;6.556;2023-01-08T10:33:29;99959.06;;;10.05;67.93
29359;BME280;16347;53.232;6.556;2023-01-08T10:36:01;99949.19;;;10.20;67.51
29359;BME280;16347;53.232;6.556;2023-01-08T10:38:32;99954.38;;;9.91;67.54
29359;BME280;16347;53.232;6.556;2023-01-08T10:41:03;99952.06;;;9.80;68.54
29359;BME280;16347;53.232;6.556;2023-01-08T10:43:36;99945.28;;;9.76;68.48
29359;BME280;16347;53.232;6.556;2023-01-08T10:46:16;99948.72;;;10.01;67.93
29359;BME280;16347;53.232;6.556;2023-01-08T10:48:50;99934.06;;;10.18;67.23
29359;BME280;16347;53.232;6.556;2023-01-08T10:51:22;99927.25;;;10.22;66.66
29359;BME280;16347;53.232;6.556;2023-01-08T10:53:51;99927.47;;;10.20;67.15
29359;BME280;16347;53.232;6.556;2023-01-08T10:56:21;99927.78;;;10.17;66.63
29359;BME280;16347;53.232;6.556;2023-01-08T10:58:52;99929.84;;;10.07;67.15
29359;BME280;16347;53.232;6.556;2023-01-08T11:01:22;99933.41;;;10.08;67.04
29359;BME280;16347;53.232;6.556;2023-01-08T11:03:52;99929.06;;;9.91;67.21
29359;BME280;16347;53.232;6.556;2023-01-08T11:06:24;99940.94;;;9.98;67.29
29359;BME280;16347;53.232;6.556;2023-01-08T11:08:55;99938.84;;;9.69;68.11
29359;BME280;16347;53.232;6.556;2023-01-08T11:11:31;99937.09;;;9.84;67.84
29359;BME280;16347;53.232;6.556;2023-01-08T11:14:03;99923.72;;;9.74;67.93
29359;BME280;16347;53.232;6.556;2023-01-08T11:16:34;99926.28;;;9.68;68.02
29359;BME280;16347;53.232;6.556;2023-01-08T11:19:03;99923.47;;;9.92;67.70
29359;BME280;16347;53.232;6.556;2023-01-08T11:21:32;99922.00;;;9.82;67.75
29359;BME280;16347;53.232;6.556;2023-01-08T11:24:16;99923.00;;;9.89;67.71
29359;BME280;16347;53.232;6.556;2023-01-08T11:26:49;99907.41;;;9.83;67.66
29359;BME280;16347;53.232;6.556;2023-01-08T11:29:23;99911.53;;;10.09;67.32
29359;BME280;16347;53.232;6.556;2023-01-08T11:31:58;99903.47;;;9.93;67.02
29359;BME280;16347;53.232;6.556;2023-01-08T11:34:37;99903.25;;;10.03;66.90
29359;BME280;16347;53.232;6.556;2023-01-08T11:37:11;99894.28;;;9.94;66.99
29359;BME280;16347;53.232;6.556;2023-01-08T11:39:40;99894.72;;;10.06;66.69
29359;BME280;16347;53.232;6.556;2023-01-08T11:42:19;99892.97;;;10.21;66.37
29359;BME280;16347;53.232;6.556;2023-01-08T11:45:05;99887.81;;;10.34;65.99
29359;BME280;16347;53.232;6.556;2023-01-08T11:47:50;99887.59;;;10.05;65.84
29359;BME280;16347;53.232;6.556;2023-01-08T11:50:26;99874.84;;;10.13;66.20
29359;BME280;16347;53.232;6.556;2023-01-08T11:53:08;99879.09;;;10.08;65.93
29359;BME280;16347;53.232;6.556;2023-01-08T11:55:46;99877.91;;;10.10;66.10
29359;BME280;16347;53.232;6.556;2023-01-08T11:58:22;99877.56;;;10.13;66.23
29359;BME280;16347;53.232;6.556;2023-01-08T12:01:10;99867.56;;;10.37;65.80
29359;BME280;16347;53.232;6.556;2023-01-08T12:03:44;99867.50;;;10.45;64.78
29359;BME280;16347;53.232;6.556;2023-01-08T12:06:25;99863.94;;;10.21;65.33
29359;BME280;16347;53.232;6.556;2023-01-08T12:09:05;99866.19;;;10.41;64.96
29359;BME280;16347;53.232;6.556;2023-01-08T12:11:43;99846.44;;;10.24;65.05
29359;BME280;16347;53.232;6.556;2023-01-08T12:14:30;99850.22;;;10.15;65.23
29359;BME280;16347;53.232;6.556;2023-01-08T12:17:19;99852.41;;;9.89;65.99
29359;BME280;16347;53.232;6.556;2023-01-08T12:20:11;99837.50;;;10.07;65.20
29359;BME280;16347;53.232;6.556;2023-01-08T12:22:46;99840.53;;;10.12;65.14
29359;BME280;16347;53.232;6.556;2023-01-08T12:25:23;99835.75;;;10.22;65.36
29359;BME280;16347;53.232;6.556;2023-01-08T12:30:54;99834.41;;;10.41;65.22
29359;BME280;16347;53.232;6.556;2023-01-08T12:33:34;99842.31;;;10.51;64.75
29359;BME280;16347;53.232;6.556;2023-01-08T12:36:08;99836.22;;;10.49;64.12
29359;BME280;16347;53.232;6.556;2023-01-08T12:38:39;99835.38;;;10.25;65.05
29359;BME280;16347;53.232;6.556;2023-01-08T12:41:12;99825.31;;;10.34;64.71
29359;BME280;16347;53.232;6.556;2023-01-08T12:43:49;99838.44;;;10.45;65.04
29359;BME280;16347;53.232;6.556;2023-01-08T12:46:18;99818.69;;;10.51;64.32
29359;BME280;16347;53.232;6.556;2023-01-08T12:48:50;99818.09;;;10.41;64.55
29359;BME280;16347;53.232;6.556;2023-01-08T12:51:27;99816.97;;;10.36;64.38
29359;BME280;16347;53.232;6.556;2023-01-08T12:54:06;99809.56;;;10.44;64.00
29359;BME280;16347;53.232;6.556;2023-01-08T12:56:43;99806.63;;;10.54;63.92
29359;BME280;16347;53.232;6.556;2023-01-08T12:59:20;99801.47;;;10.59;63.68
29359;BME280;16347;53.232;6.556;2023-01-08T13:01:56;99802.31;;;10.59;63.50
29359;BME280;16347;53.232;6.556;2023-01-08T13:04:40;99801.78;;;10.41;64.05
29359;BME280;16347;53.232;6.556;2023-01-08T13:07:11;99796.47;;;10.48;63.88
29359;BME280;16347;53.232;6.556;2023-01-08T13:09:44;99790.44;;;10.75;63.21
29359;BME280;16347;53.232;6.556;2023-01-08T13:12:14;99790.66;;;11.03;62.72
29359;BME280;16347;53.232;6.556;2023-01-08T13:14:46;99782.94;;;10.92;62.82
29359;BME280;16347;53.232;6.556;2023-01-08T13:17:19;99779.69;;;11.11;62.45